sensor_id;sensor_type;location;lat;lon;timestamp;temperature;humidity
3876;DHT22;1953;51.222;6.624;2024-02-23T00:01:30;7.70;1.00
3876;DHT22;1953;51.222;6.624;2024-02-23T00:06:13;7.70;1.00
3876;DHT22;1953;51.222;6.624;2024-02-23T00:10:56;7.70;1.00
3876;DHT22;1953;51.222;6.624;2024-02-23T00:15:38;7.60;1.00
3876;DHT22;1953;51.222;6.624;2024-02-23T00:21:28;7.50;1.00
3876;DHT22;1953;51.222;6.624;2024-02-23T00:26:11;7.40;1.00
3876;DHT22;1953;51.222;6.624;2024-02-23T00:30:53;7.30;1.00
3876;DHT22;1953;51.222;6.624;2024-02-23T00:35:36;7.30;1.00
3876;DHT22;1953;51.222;6.624;2024-02-23T00:40:20;7.20;1.00
3876;DHT22;1953;51.222;6.624;2024-02-23T00:45:03;7.30;1.00
3876;DHT22;1953;51.222;6.624;2024-02-23T00:49:46;7.30;1.00
3876;DHT22;1953;51.222;6.624;2024-02-23T00:54:28;7.30;1.00
3876;DHT22;1953;51.222;6.624;2024-02-23T00:59:12;7.30;1.00
3876;DHT22;1953;51.222;6.624;2024-02-23T01:03:55;7.30;1.00
3876;DHT22;1953;51.222;6.624;2024-02-23T01:08:38;7.30;1.00
3876;DHT22;1953;51.222;6.624;2024-02-23T01:13:21;7.30;1.00
3876;DHT22;1953;51.222;6.624;2024-02-23T01:18:05;7.30;1.00
3876;DHT22;1953;51.222;6.624;2024-02-23T01:22:49;7.40;1.00
3876;DHT22;1953;51.222;6.624;2024-02-23T01:27:31;7.30;1.00
3876;DHT22;1953;51.222;6.624;2024-02-23T01:32:14;7.40;1.00
3876;DHT22;1953;51.222;6.624;2024-02-23T01:36:58;7.30;1.00
3876;DHT22;1953;51.222;6.624;2024-02-23T01:41:40;7.30;1.00
3876;DHT22;1953;51.222;6.624;2024-02-23T01:46:25;7.40;1.00
3876;DHT22;1953;51.222;6.624;2024-02-23T01:51:08;7.40;1.00
3876;DHT22;1953;51.222;6.624;2024-02-23T01:55:53;7.40;1.00
3876;DHT22;1953;51.222;6.624;2024-02-23T02:00:36;7.30;1.00
3876;DHT22;1953;51.222;6.624;2024-02-23T02:05:19;7.20;1.00
3876;DHT22;1953;51.222;6.624;2024-02-23T02:10:02;7.20;1.00
3876;DHT22;1953;51.222;6.624;2024-02-23T02:14:46;7.20;1.00
3876;DHT22;1953;51.222;6.624;2024-02-23T02:19:29;7.20;1.00
3876;DHT22;1953;51.222;6.624;2024-02-23T02:24:11;7.20;1.00
3876;DHT22;1953;51.222;6.624;2024-02-23T02:28:54;7.10;1.00
3876;DHT22;1953;51.222;6.624;2024-02-23T02:33:37;7.10;1.00
3876;DHT22;1953;51.222;6.624;2024-02-23T02:38:21;7.10;1.00
3876;DHT22;1953;51.222;6.624;2024-02-23T02:43:04;7.10;1.00
3876;DHT22;1953;51.222;6.624;2024-02-23T02:47:47;7.00;1.00
3876;DHT22;1953;51.222;6.624;2024-02-23T02:52:31;7.00;1.00
3876;DHT22;1953;51.222;6.624;2024-02-23T02:57:14;7.00;1.00
3876;DHT22;1953;51.222;6.624;2024-02-23T03:01:56;7.00;1.00
3876;DHT22;1953;51.222;6.624;2024-02-23T03:06:39;6.90;1.00
3876;DHT22;1953;51.222;6.624;2024-02-23T03:11:23;6.90;1.00
3876;DHT22;1953;51.222;6.624;2024-02-23T03:16:05;6.90;1.00
3876;DHT22;1953;51.222;6.624;2024-02-23T03:20:48;7.00;1.00
3876;DHT22;1953;51.222;6.624;2024-02-23T03:25:30;6.90;1.00
3876;DHT22;1953;51.222;6.624;2024-02-23T03:30:14;6.80;1.00
3876;DHT22;1953;51.222;6.624;2024-02-23T03:34:57;6.90;1.00
3876;DHT22;1953;51.222;6.624;2024-02-23T03:39:39;6.90;1.00
3876;DHT22;1953;51.222;6.624;2024-02-23T03:44:22;6.90;1.00
3876;DHT22;1953;51.222;6.624;2024-02-23T03:49:06;6.90;1.00
3876;DHT22;1953;51.222;6.624;2024-02-23T03:53:48;6.90;1.00
3876;DHT22;1953;51.222;6.624;2024-02-23T03:58:31;6.90;1.00
3876;DHT22;1953;51.222;6.624;2024-02-23T04:03:13;6.90;1.00
3876;DHT22;1953;51.222;6.624;2024-02-23T04:07:57;6.90;1.00
3876;DHT22;1953;51.222;6.624;2024-02-23T04:12:39;6.90;1.00
3876;DHT22;1953;51.222;6.624;2024-02-23T04:17:22;6.90;1.00
3876;DHT22;1953;51.222;6.624;2024-02-23T04:22:06;6.90;1.00
3876;DHT22;1953;51.222;6.624;2024-02-23T04:26:51;6.90;1.00
3876;DHT22;1953;51.222;6.624;2024-02-23T04:31:36;6.90;1.00
3876;DHT22;1953;51.222;6.624;2024-02-23T04:36:19;6.90;1.00
3876;DHT22;1953;51.222;6.624;2024-02-23T04:41:03;6.90;1.00
3876;DHT22;1953;51.222;6.624;2024-02-23T04:45:47;7.00;1.00
3876;DHT22;1953;51.222;6.624;2024-02-23T04:50:30;7.00;1.00
3876;DHT22;1953;51.222;6.624;2024-02-23T04:55:12;7.00;1.00
3876;DHT22;1953;51.222;6.624;2024-02-23T04:59:55;7.10;1.00
3876;DHT22;1953;51.222;6.624;2024-02-23T05:04:39;7.10;1.00
3876;DHT22;1953;51.222;6.624;2024-02-23T05:09:21;7.10;1.00
3876;DHT22;1953;51.222;6.624;2024-02-23T05:14:04;7.20;1.00
3876;DHT22;1953;51.222;6.624;2024-02-23T05:18:47;7.20;1.00
3876;DHT22;1953;51.222;6.624;2024-02-23T05:23:31;7.20;1.00
3876;DHT22;1953;51.222;6.624;2024-02-23T05:28:13;7.20;1.00
3876;DHT22;1953;51.222;6.624;2024-02-23T05:32:56;7.10;1.00
3876;DHT22;1953;51.222;6.624;2024-02-23T05:37:40;7.10;1.00
3876;DHT22;1953;51.222;6.624;2024-02-23T05:42:24;7.10;1.00
3876;DHT22;1953;51.222;6.624;2024-02-23T05:47:07;7.20;1.00
3876;DHT22;1953;51.222;6.624;2024-02-23T05:51:49;7.40;1.00
3876;DHT22;1953;51.222;6.624;2024-02-23T05:56:32;7.40;1.00
3876;DHT22;1953;51.222;6.624;2024-02-23T06:01:15;7.40;1.00
3876;DHT22;1953;51.222;6.624;2024-02-23T06:05:58;7.40;1.00
3876;DHT22;1953;51.222;6.624;2024-02-23T06:10:40;7.50;1.00
3876;DHT22;1953;51.222;6.624;2024-02-23T06:15:24;7.50;1.00
3876;DHT22;1953;51.222;6.624;2024-02-23T06:20:09;7.50;1.00
3876;DHT22;1953;51.222;6.624;2024-02-23T06:24:52;7.50;1.00
3876;DHT22;1953;51.222;6.624;2024-02-23T06:29:35;7.50;1.00
3876;DHT22;1953;51.222;6.624;2024-02-23T06:34:17;7.40;1.00
3876;DHT22;1953;51.222;6.624;2024-02-23T06:39:01;7.50;1.00
3876;DHT22;1953;51.222;6.624;2024-02-23T06:43:44;7.60;1.00
3876;DHT22;1953;51.222;6.624;2024-02-23T06:48:27;7.60;1.00
3876;DHT22;1953;51.222;6.624;2024-02-23T06:53:09;7.50;1.00
3876;DHT22;1953;51.222;6.624;2024-02-23T06:57:53;7.50;1.00
3876;DHT22;1953;51.222;6.624;2024-02-23T07:02:36;7.60;1.00
3876;DHT22;1953;51.222;6.624;2024-02-23T07:07:18;7.60;1.00
3876;DHT22;1953;51.222;6.624;2024-02-23T07:12:01;7.60;1.00
3876;DHT22;1953;51.222;6.624;2024-02-23T07:16:45;7.60;1.00
3876;DHT22;1953;51.222;6.624;2024-02-23T07:21:28;7.60;1.00
3876;DHT22;1953;51.222;6.624;2024-02-23T07:26:10;7.60;1.00
3876;DHT22;1953;51.222;6.624;2024-02-23T07:30:53;7.60;1.00
3876;DHT22;1953;51.222;6.624;2024-02-23T07:35:37;7.60;1.00
3876;DHT22;1953;51.222;6.624;2024-02-23T07:40:19;7.60;1.00
3876;DHT22;1953;51.222;6.624;2024-02-23T07:45:02;7.80;1.00
3876;DHT22;1953;51.222;6.624;2024-02-23T07:49:45;7.80;1.00
3876;DHT22;1953;51.222;6.624;2024-02-23T07:54:29;7.90;1.00
3876;DHT22;1953;51.222;6.624;2024-02-23T07:59:11;7.90;1.00
3876;DHT22;1953;51.222;6.624;2024-02-23T08:03:54;8.10;1.00
3876;DHT22;1953;51.222;6.624;2024-02-23T08:08:36;8.00;1.00
3876;DHT22;1953;51.222;6.624;2024-02-23T08:13:20;7.90;1.00
3876;DHT22;1953;51.222;6.624;2024-02-23T08:18:03;8.00;1.00
3876;DHT22;1953;51.222;6.624;2024-02-23T08:22:46;8.20;1.00
3876;DHT22;1953;51.222;6.624;2024-02-23T08:27:28;8.10;1.00
3876;DHT22;1953;51.222;6.624;2024-02-23T08:32:12;8.20;1.00
3876;DHT22;1953;51.222;6.624;2024-02-23T08:36:55;8.20;1.00
3876;DHT22;1953;51.222;6.624;2024-02-23T08:41:37;8.30;1.00
3876;DHT22;1953;51.222;6.624;2024-02-23T08:46:20;8.40;1.00
3876;DHT22;1953;51.222;6.624;2024-02-23T08:51:04;8.40;1.00
3876;DHT22;1953;51.222;6.624;2024-02-23T08:55:46;8.50;1.00
3876;DHT22;1953;51.222;6.624;2024-02-23T09:00:29;8.40;1.00
3876;DHT22;1953;51.222;6.624;2024-02-23T09:05:11;8.40;1.00
3876;DHT22;1953;51.222;6.624;2024-02-23T09:09:55;8.60;1.00
3876;DHT22;1953;51.222;6.624;2024-02-23T09:14:38;8.70;1.00
3876;DHT22;1953;51.222;6.624;2024-02-23T09:19:22;8.70;1.00
3876;DHT22;1953;51.222;6.624;2024-02-23T09:24:06;9.00;1.00
3876;DHT22;1953;51.222;6.624;2024-02-23T09:28:50;9.00;1.00
3876;DHT22;1953;51.222;6.624;2024-02-23T09:33:32;9.00;1.00
3876;DHT22;1953;51.222;6.624;2024-02-23T09:38:15;9.00;1.00
3876;DHT22;1953;51.222;6.624;2024-02-23T09:42:58;9.00;1.00
3876;DHT22;1953;51.222;6.624;2024-02-23T09:47:43;9.10;1.00
3876;DHT22;1953;51.222;6.624;2024-02-23T09:52:26;9.20;1.00
3876;DHT22;1953;51.222;6.624;2024-02-23T09:57:10;9.20;1.00
3876;DHT22;1953;51.222;6.624;2024-02-23T10:01:55;9.40;1.00
3876;DHT22;1953;51.222;6.624;2024-02-23T10:06:44;9.30;1.00
3876;DHT22;1953;51.222;6.624;2024-02-23T10:11:30;9.50;1.00
3876;DHT22;1953;51.222;6.624;2024-02-23T10:16:13;9.50;1.00
3876;DHT22;1953;51.222;6.624;2024-02-23T10:20:55;9.60;1.00
3876;DHT22;1953;51.222;6.624;2024-02-23T10:25:40;9.50;1.00
3876;DHT22;1953;51.222;6.624;2024-02-23T10:30:23;9.50;1.00
3876;DHT22;1953;51.222;6.624;2024-02-23T10:35:10;9.60;1.00
3876;DHT22;1953;51.222;6.624;2024-02-23T10:39:57;9.70;1.00
3876;DHT22;1953;51.222;6.624;2024-02-23T10:44:41;9.70;1.00
3876;DHT22;1953;51.222;6.624;2024-02-23T10:49:26;9.70;1.00
3876;DHT22;1953;51.222;6.624;2024-02-23T10:54:11;9.70;1.00
3876;DHT22;1953;51.222;6.624;2024-02-23T10:58:53;9.70;1.00
3876;DHT22;1953;51.222;6.624;2024-02-23T11:03:41;9.70;1.00
3876;DHT22;1953;51.222;6.624;2024-02-23T11:08:28;9.80;1.00
3876;DHT22;1953;51.222;6.624;2024-02-23T11:13:10;9.80;1.00
3876;DHT22;1953;51.222;6.624;2024-02-23T11:17:54;9.80;1.00
3876;DHT22;1953;51.222;6.624;2024-02-23T11:22:38;10.00;1.00
3876;DHT22;1953;51.222;6.624;2024-02-23T11:27:24;10.10;1.00
3876;DHT22;1953;51.222;6.624;2024-02-23T11:32:13;10.10;1.00
3876;DHT22;1953;51.222;6.624;2024-02-23T11:36:56;10.20;1.00
3876;DHT22;1953;51.222;6.624;2024-02-23T11:41:43;10.30;1.00
3876;DHT22;1953;51.222;6.624;2024-02-23T11:46:27;10.20;1.00
3876;DHT22;1953;51.222;6.624;2024-02-23T11:51:10;10.30;1.00
3876;DHT22;1953;51.222;6.624;2024-02-23T11:55:53;10.30;1.00
3876;DHT22;1953;51.222;6.624;2024-02-23T12:00:37;10.40;1.00
3876;DHT22;1953;51.222;6.624;2024-02-23T12:05:23;10.40;1.00
3876;DHT22;1953;51.222;6.624;2024-02-23T12:10:06;10.50;1.00
3876;DHT22;1953;51.222;6.624;2024-02-23T12:14:49;10.50;1.00
3876;DHT22;1953;51.222;6.624;2024-02-23T12:22:28;10.50;1.00
3876;DHT22;1953;51.222;6.624;2024-02-23T12:27:11;10.40;1.00
3876;DHT22;1953;51.222;6.624;2024-02-23T12:32:03;10.60;1.00
3876;DHT22;1953;51.222;6.624;2024-02-23T12:36:46;10.80;1.00
3876;DHT22;1953;51.222;6.624;2024-02-23T12:41:30;11.00;1.00
3876;DHT22;1953;51.222;6.624;2024-02-23T12:46:12;11.00;1.00
3876;DHT22;1953;51.222;6.624;2024-02-23T12:50:55;10.90;1.00
3876;DHT22;1953;51.222;6.624;2024-02-23T12:55:37;10.90;1.00
3876;DHT22;1953;51.222;6.624;2024-02-23T13:00:22;11.00;1.00
3876;DHT22;1953;51.222;6.624;2024-02-23T13:05:04;10.80;1.00
3876;DHT22;1953;51.222;6.624;2024-02-23T13:09:47;11.00;1.00
3876;DHT22;1953;51.222;6.624;2024-02-23T13:14:30;11.30;1.00
3876;DHT22;1953;51.222;6.624;2024-02-23T13:19:14;11.90;1.00
3876;DHT22;1953;51.222;6.624;2024-02-23T13:23:57;11.90;1.00
3876;DHT22;1953;51.222;6.624;2024-02-23T13:28:41;11.80;1.00
3876;DHT22;1953;51.222;6.624;2024-02-23T13:33:23;11.90;1.00
3876;DHT22;1953;51.222;6.624;2024-02-23T13:38:08;11.80;1.00
3876;DHT22;1953;51.222;6.624;2024-02-23T13:42:51;11.70;1.00
3876;DHT22;1953;51.222;6.624;2024-02-23T13:47:35;11.70;1.00
3876;DHT22;1953;51.222;6.624;2024-02-23T13:52:19;11.60;1.00
3876;DHT22;1953;51.222;6.624;2024-02-23T13:57:03;11.80;1.00
3876;DHT22;1953;51.222;6.624;2024-02-23T14:01:45;11.90;1.00
3876;DHT22;1953;51.222;6.624;2024-02-23T14:06:28;12.00;1.00
3876;DHT22;1953;51.222;6.624;2024-02-23T14:11:10;11.90;1.00
3876;DHT22;1953;51.222;6.624;2024-02-23T14:15:54;11.70;1.00
3876;DHT22;1953;51.222;6.624;2024-02-23T14:20:37;11.60;1.00
3876;DHT22;1953;51.222;6.624;2024-02-23T14:25:19;11.60;1.00
3876;DHT22;1953;51.222;6.624;2024-02-23T14:30:02;11.70;1.00
3876;DHT22;1953;51.222;6.624;2024-02-23T14:34:47;11.80;1.00
3876;DHT22;1953;51.222;6.624;2024-02-23T14:39:30;11.70;1.00
3876;DHT22;1953;51.222;6.624;2024-02-23T14:44:13;11.60;1.00
3876;DHT22;1953;51.222;6.624;2024-02-23T14:48:55;11.60;1.00
3876;DHT22;1953;51.222;6.624;2024-02-23T14:53:39;11.60;1.00
3876;DHT22;1953;51.222;6.624;2024-02-23T14:58:22;11.40;1.00
3876;DHT22;1953;51.222;6.624;2024-02-23T15:03:05;11.30;1.00
3876;DHT22;1953;51.222;6.624;2024-02-23T15:07:50;10.90;1.00
3876;DHT22;1953;51.222;6.624;2024-02-23T15:12:34;10.50;1.00
3876;DHT22;1953;51.222;6.624;2024-02-23T15:17:16;10.30;1.00
3876;DHT22;1953;51.222;6.624;2024-02-23T15:21:59;10.20;1.00
3876;DHT22;1953;51.222;6.624;2024-02-23T15:26:42;10.10;1.00
3876;DHT22;1953;51.222;6.624;2024-02-23T15:31:26;10.00;1.00
3876;DHT22;1953;51.222;6.624;2024-02-23T15:36:09;10.00;1.00
3876;DHT22;1953;51.222;6.624;2024-02-23T15:40:51;10.50;1.00
3876;DHT22;1953;51.222;6.624;2024-02-23T15:45:34;10.40;1.00
3876;DHT22;1953;51.222;6.624;2024-02-23T15:50:17;10.20;1.00
3876;DHT22;1953;51.222;6.624;2024-02-23T15:55:01;10.10;1.00
3876;DHT22;1953;51.222;6.624;2024-02-23T15:59:44;10.20;1.00
3876;DHT22;1953;51.222;6.624;2024-02-23T16:04:26;10.80;1.00
3876;DHT22;1953;51.222;6.624;2024-02-23T16:09:10;11.00;1.00
3876;DHT22;1953;51.222;6.624;2024-02-23T16:13:56;10.90;1.00
3876;DHT22;1953;51.222;6.624;2024-02-23T16:18:39;10.50;1.00
3876;DHT22;1953;51.222;6.624;2024-02-23T16:23:22;10.40;1.00
3876;DHT22;1953;51.222;6.624;2024-02-23T16:28:06;10.30;1.00
3876;DHT22;1953;51.222;6.624;2024-02-23T16:32:48;10.20;1.00
3876;DHT22;1953;51.222;6.624;2024-02-23T16:37:31;10.10;1.00
3876;DHT22;1953;51.222;6.624;2024-02-23T16:42:14;10.10;1.00
3876;DHT22;1953;51.222;6.624;2024-02-23T16:46:57;10.10;1.00
3876;DHT22;1953;51.222;6.624;2024-02-23T16:51:40;10.10;1.00
3876;DHT22;1953;51.222;6.624;2024-02-23T16:56:24;10.10;1.00
3876;DHT22;1953;51.222;6.624;2024-02-23T17:01:08;10.00;1.00
3876;DHT22;1953;51.222;6.624;2024-02-23T17:05:52;10.00;1.00
3876;DHT22;1953;51.222;6.624;2024-02-23T17:10:34;9.90;1.00
3876;DHT22;1953;51.222;6.624;2024-02-23T17:15:17;9.70;1.00
3876;DHT22;1953;51.222;6.624;2024-02-23T17:19:59;9.80;1.00
3876;DHT22;1953;51.222;6.624;2024-02-23T17:24:43;9.70;1.00
3876;DHT22;1953;51.222;6.624;2024-02-23T17:29:26;9.70;1.00
3876;DHT22;1953;51.222;6.624;2024-02-23T17:34:08;9.60;1.00
3876;DHT22;1953;51.222;6.624;2024-02-23T17:38:53;9.50;1.00
3876;DHT22;1953;51.222;6.624;2024-02-23T17:43:36;9.40;1.00
3876;DHT22;1953;51.222;6.624;2024-02-23T17:48:19;9.40;1.00
3876;DHT22;1953;51.222;6.624;2024-02-23T17:53:01;9.30;1.00
3876;DHT22;1953;51.222;6.624;2024-02-23T17:57:44;9.30;1.00
3876;DHT22;1953;51.222;6.624;2024-02-23T18:02:28;9.20;1.00
3876;DHT22;1953;51.222;6.624;2024-02-23T18:07:10;9.20;1.00
3876;DHT22;1953;51.222;6.624;2024-02-23T18:11:53;9.30;1.00
3876;DHT22;1953;51.222;6.624;2024-02-23T18:16:37;9.20;1.00
3876;DHT22;1953;51.222;6.624;2024-02-23T18:21:21;9.20;1.00
3876;DHT22;1953;51.222;6.624;2024-02-23T18:26:03;9.10;1.00
3876;DHT22;1953;51.222;6.624;2024-02-23T18:30:46;9.10;1.00
3876;DHT22;1953;51.222;6.624;2024-02-23T18:35:28;9.20;1.00
3876;DHT22;1953;51.222;6.624;2024-02-23T18:40:13;9.10;1.00
3876;DHT22;1953;51.222;6.624;2024-02-23T18:44:55;9.00;1.00
3876;DHT22;1953;51.222;6.624;2024-02-23T18:49:38;9.00;1.00
3876;DHT22;1953;51.222;6.624;2024-02-23T18:54:20;9.00;1.00
3876;DHT22;1953;51.222;6.624;2024-02-23T18:59:04;9.00;1.00
3876;DHT22;1953;51.222;6.624;2024-02-23T19:03:47;9.00;1.00
3876;DHT22;1953;51.222;6.624;2024-02-23T19:08:29;9.00;1.00
3876;DHT22;1953;51.222;6.624;2024-02-23T19:13:12;9.00;1.00
3876;DHT22;1953;51.222;6.624;2024-02-23T19:17:56;8.90;1.00
3876;DHT22;1953;51.222;6.624;2024-02-23T19:22:38;8.90;1.00
3876;DHT22;1953;51.222;6.624;2024-02-23T19:27:21;9.80;1.00
3876;DHT22;1953;51.222;6.624;2024-02-23T19:32:04;8.80;1.00
3876;DHT22;1953;51.222;6.624;2024-02-23T19:36:48;8.80;1.00
3876;DHT22;1953;51.222;6.624;2024-02-23T19:41:40;8.90;1.00
3876;DHT22;1953;51.222;6.624;2024-02-23T19:46:23;8.80;1.00
3876;DHT22;1953;51.222;6.624;2024-02-23T19:51:05;8.80;1.00
3876;DHT22;1953;51.222;6.624;2024-02-23T19:55:50;8.70;1.00
3876;DHT22;1953;51.222;6.624;2024-02-23T20:00:32;8.60;1.00
3876;DHT22;1953;51.222;6.624;2024-02-23T20:05:15;8.50;1.00
3876;DHT22;1953;51.222;6.624;2024-02-23T20:09:57;8.40;1.00
3876;DHT22;1953;51.222;6.624;2024-02-23T20:14:41;8.30;1.00
3876;DHT22;1953;51.222;6.624;2024-02-23T20:19:24;8.20;1.00
3876;DHT22;1953;51.222;6.624;2024-02-23T20:24:07;8.20;1.00
3876;DHT22;1953;51.222;6.624;2024-02-23T20:28:50;8.10;1.00
3876;DHT22;1953;51.222;6.624;2024-02-23T20:33:34;8.00;1.00
3876;DHT22;1953;51.222;6.624;2024-02-23T20:38:17;7.90;1.00
3876;DHT22;1953;51.222;6.624;2024-02-23T20:42:59;7.90;1.00
3876;DHT22;1953;51.222;6.624;2024-02-23T20:47:42;7.90;1.00
3876;DHT22;1953;51.222;6.624;2024-02-23T20:52:26;8.00;1.00
3876;DHT22;1953;51.222;6.624;2024-02-23T20:57:08;7.90;1.00
3876;DHT22;1953;51.222;6.624;2024-02-23T21:01:51;8.00;1.00
3876;DHT22;1953;51.222;6.624;2024-02-23T21:06:33;8.00;1.00
3876;DHT22;1953;51.222;6.624;2024-02-23T21:11:17;8.00;1.00
3876;DHT22;1953;51.222;6.624;2024-02-23T21:16:00;8.10;1.00
3876;DHT22;1953;51.222;6.624;2024-02-23T21:20:42;8.10;1.00
3876;DHT22;1953;51.222;6.624;2024-02-23T21:25:25;8.00;1.00
3876;DHT22;1953;51.222;6.624;2024-02-23T21:30:10;8.00;1.00
3876;DHT22;1953;51.222;6.624;2024-02-23T21:34:53;8.00;1.00
3876;DHT22;1953;51.222;6.624;2024-02-23T21:39:35;8.10;1.00
3876;DHT22;1953;51.222;6.624;2024-02-23T21:44:18;8.00;1.00
3876;DHT22;1953;51.222;6.624;2024-02-23T21:49:02;8.10;1.00
3876;DHT22;1953;51.222;6.624;2024-02-23T21:53:44;8.10;1.00
3876;DHT22;1953;51.222;6.624;2024-02-23T21:58:26;8.00;1.00
3876;DHT22;1953;51.222;6.624;2024-02-23T22:03:10;7.90;1.00
3876;DHT22;1953;51.222;6.624;2024-02-23T22:07:54;7.90;1.00
3876;DHT22;1953;51.222;6.624;2024-02-23T22:12:36;7.90;1.00
3876;DHT22;1953;51.222;6.624;2024-02-23T22:17:19;7.80;1.00
3876;DHT22;1953;51.222;6.624;2024-02-23T22:22:01;7.90;1.00
3876;DHT22;1953;51.222;6.624;2024-02-23T22:26:45;7.80;1.00
3876;DHT22;1953;51.222;6.624;2024-02-23T22:31:28;7.70;1.00
3876;DHT22;1953;51.222;6.624;2024-02-23T22:36:10;7.70;1.00
3876;DHT22;1953;51.222;6.624;2024-02-23T22:40:53;7.70;1.00
3876;DHT22;1953;51.222;6.624;2024-02-23T22:45:37;7.70;1.00
3876;DHT22;1953;51.222;6.624;2024-02-23T22:50:19;7.70;1.00
3876;DHT22;1953;51.222;6.624;2024-02-23T22:55:03;7.70;1.00
3876;DHT22;1953;51.222;6.624;2024-02-23T22:59:46;7.80;1.00
3876;DHT22;1953;51.222;6.624;2024-02-23T23:04:30;7.80;1.00
3876;DHT22;1953;51.222;6.624;2024-02-23T23:09:13;7.70;1.00
3876;DHT22;1953;51.222;6.624;2024-02-23T23:13:56;7.70;1.00
3876;DHT22;1953;51.222;6.624;2024-02-23T23:18:39;7.70;1.00
3876;DHT22;1953;51.222;6.624;2024-02-23T23:23:23;7.80;1.00
3876;DHT22;1953;51.222;6.624;2024-02-23T23:28:05;7.90;1.00
3876;DHT22;1953;51.222;6.624;2024-02-23T23:32:48;7.80;1.00
3876;DHT22;1953;51.222;6.624;2024-02-23T23:37:30;7.70;1.00
3876;DHT22;1953;51.222;6.624;2024-02-23T23:42:14;7.60;1.00
3876;DHT22;1953;51.222;6.624;2024-02-23T23:46:56;7.50;1.00
3876;DHT22;1953;51.222;6.624;2024-02-23T23:51:39;7.50;1.00
3876;DHT22;1953;51.222;6.624;2024-02-23T23:56:21;7.50;1.00
